メインページ
METAR-TAF:

METAR-TAF

空港 :

鹿児島空港

鹿児島, 日本

緯度: 31-48N, 経度: 130-43E, 海抜: 272m

現時点の気象観測

当レポートは1時間6分前の11:00(UTC)に作成
の風 12kt、最大22ktの突風を伴う、北東から東/南東の間で変化する
気温 18°C
湿度 56%
気圧 1014 hPa
視程10km以上
高度2000ftの雲はほとんどない
高度6000ftの雲は散在している
高度8000ftの千切れ雲あり

METAR: RJFK 201100Z 08012G22KT 040V120 9999 FEW020 SCT060 BKN080 18/09 Q1014 RMK 1CU020 3SC060 6AC080 A2997 VOLCANIC ASH CLOUD S

時間: 21:06 (12:06 UTC)

予報

当レポートは1時間1分前の11:05(UTC)に作成
予報は20日の 12時(UTC)から 21日の 18時(UTC)まで有効
の風 12kt
視程: 8000m
高度500ftの雲はほとんどない
高度1000ftの雲は散在している
高度1500ftの千切れ雲あり
弱いにわか雨
20日の 15時(UTC)から 20日の 21時(UTC)まで一時的に
視程: 4000m
高度200ftの雲はほとんどない
高度500ftの雲は散在している
高度800ftの千切れ雲あり
にわか雨, 靄
20日の 21時(UTC)から 21日の 06時(UTC)まで一時的に
の風 15kt、最大28ktの突風を伴う

TAF: RJFK 201105Z 2012/2118 09012KT 8000 -SHRA FEW005 SCT010 BKN015 TEMPO 2015/2021 4000 SHRA BR FEW002 SCT005 BKN008 TEMPO 2021/2106 08015G28KT

4,000以上の空港の気象観測と天気予報(METAR報とTAF報)

利用可能な観測所は地図上に黄色い丸と赤い丸で示す。

丸の上にカーソルを重ねると観測所名を参照できる。

次にクリックすると気象観測と天気予報を参照できる。

マップの切り替え:黒色「×」印の緑ボタンをクリックして拡大、「-」印の緑ボタンをクリックして縮小、緑色の三角印をクリックして隣りの地図に切り替え


METAR-TAF: